createdAt,value
2023-11-29T00:00:52.208Z,0.00
2023-11-29T00:01:52.204Z,0.00
2023-11-29T00:02:52.202Z,0.00
2023-11-29T00:03:52.153Z,0.00
2023-11-29T00:04:52.161Z,0.00
2023-11-29T00:05:52.202Z,0.00
2023-11-29T00:06:52.156Z,0.00
2023-11-29T00:07:52.090Z,0.00
2023-11-29T00:08:52.063Z,0.00
2023-11-29T00:09:52.043Z,0.00
2023-11-29T00:10:52.141Z,0.00
2023-11-29T00:11:52.004Z,0.00
2023-11-29T00:12:51.987Z,0.00
2023-11-29T00:13:51.971Z,0.00
2023-11-29T00:14:51.973Z,0.00
2023-11-29T00:15:51.945Z,0.00
2023-11-29T00:16:55.613Z,0.00
2023-11-29T00:17:51.966Z,0.00
2023-11-29T00:18:51.961Z,0.00
2023-11-29T00:19:51.858Z,0.00
2023-11-29T00:20:51.932Z,0.00
2023-11-29T00:21:51.822Z,0.00
2023-11-29T00:22:51.797Z,0.00
2023-11-29T00:23:51.798Z,0.00
2023-11-29T00:24:51.765Z,0.00
2023-11-29T00:25:51.749Z,0.00
2023-11-29T00:26:51.849Z,0.00
2023-11-29T00:27:51.710Z,0.00
2023-11-29T00:28:51.689Z,0.00
2023-11-29T00:29:51.683Z,0.00
2023-11-29T00:30:51.697Z,0.00
2023-11-29T00:31:51.641Z,0.00
2023-11-29T00:32:51.716Z,0.00
2023-11-29T00:33:51.598Z,0.00
2023-11-29T00:34:51.580Z,0.00
2023-11-29T00:35:51.611Z,0.00
2023-11-29T00:36:51.541Z,0.00
2023-11-29T00:37:51.532Z,0.00
2023-11-29T00:38:51.503Z,0.00
2023-11-29T00:39:51.486Z,0.00
2023-11-29T00:40:51.469Z,0.00
2023-11-29T00:41:51.448Z,0.00
2023-11-29T00:42:57.454Z,0.00
2023-11-29T00:43:51.414Z,0.00
2023-11-29T00:44:51.432Z,0.00
2023-11-29T00:45:51.375Z,0.00
2023-11-29T00:46:51.381Z,0.00
2023-11-29T00:47:51.419Z,0.00
2023-11-29T00:48:51.319Z,0.00
2023-11-29T00:49:51.303Z,0.00
2023-11-29T00:50:51.302Z,0.00
2023-11-29T00:51:51.268Z,0.00
2023-11-29T00:52:51.267Z,0.00
2023-11-29T00:53:51.226Z,0.00
2023-11-29T00:54:51.223Z,0.00
2023-11-29T00:55:51.192Z,0.00
2023-11-29T00:56:51.179Z,0.00
2023-11-29T00:57:51.158Z,0.00
2023-11-29T00:58:51.235Z,0.00
2023-11-29T00:59:51.129Z,0.00
2023-11-29T01:00:51.140Z,0.00
2023-11-29T01:01:51.118Z,0.00
2023-11-29T01:02:51.180Z,0.00
2023-11-29T01:03:51.220Z,0.00
2023-11-29T01:04:51.053Z,0.00
2023-11-29T01:05:51.095Z,0.00
2023-11-29T01:06:50.983Z,0.00
2023-11-29T01:07:50.970Z,0.00
2023-11-29T01:08:51.005Z,0.00
2023-11-29T01:09:50.936Z,0.00
2023-11-29T01:10:50.916Z,0.00
2023-11-29T01:11:50.892Z,0.00
2023-11-29T01:12:50.872Z,0.00
2023-11-29T01:13:50.856Z,0.00
2023-11-29T01:14:50.962Z,0.00
2023-11-29T01:15:50.816Z,0.00
2023-11-29T01:16:50.796Z,0.00
2023-11-29T01:17:50.867Z,0.00
2023-11-29T01:18:50.825Z,0.00
2023-11-29T01:19:50.742Z,0.00
2023-11-29T01:20:50.832Z,0.00
2023-11-29T01:21:50.757Z,0.00
2023-11-29T01:22:50.686Z,0.00
2023-11-29T01:23:50.698Z,0.00
2023-11-29T01:24:50.648Z,0.00
2023-11-29T01:25:50.635Z,0.00
2023-11-29T01:26:50.645Z,0.00
2023-11-29T01:27:50.595Z,0.00
2023-11-29T01:28:50.590Z,0.00
2023-11-29T01:29:50.609Z,0.00
2023-11-29T01:30:50.666Z,0.00
2023-11-29T01:31:50.523Z,0.00
2023-11-29T01:32:50.601Z,0.00
2023-11-29T01:33:50.540Z,0.00
2023-11-29T01:34:50.461Z,0.00
2023-11-29T01:35:50.471Z,0.00
2023-11-29T01:36:50.430Z,0.00
2023-11-29T01:37:50.415Z,0.00
2023-11-29T01:38:50.436Z,0.00
2023-11-29T01:39:50.376Z,0.00
2023-11-29T01:40:50.349Z,0.00
2023-11-29T01:41:50.403Z,0.00
2023-11-29T01:42:50.309Z,0.00
2023-11-29T01:43:50.302Z,0.00
2023-11-29T01:44:50.343Z,0.00
2023-11-29T01:45:50.356Z,0.00
2023-11-29T01:46:50.448Z,0.00
2023-11-29T01:47:50.266Z,0.00
2023-11-29T01:48:50.199Z,0.00
2023-11-29T01:49:50.195Z,0.00
2023-11-29T01:50:50.297Z,0.00
2023-11-29T01:51:50.151Z,0.00
2023-11-29T01:52:50.125Z,0.00
2023-11-29T01:53:52.802Z,0.00
2023-11-29T01:54:50.097Z,0.00
2023-11-29T01:55:50.080Z,0.00
2023-11-29T01:56:52.164Z,0.00
2023-11-29T01:57:50.034Z,0.00
2023-11-29T01:58:50.020Z,0.00
2023-11-29T01:59:50.140Z,0.00
2023-11-29T02:00:49.975Z,0.00
2023-11-29T02:01:49.961Z,0.00
2023-11-29T02:02:50.096Z,0.00
2023-11-29T02:03:49.948Z,0.00
2023-11-29T02:04:49.913Z,0.00
2023-11-29T02:05:49.938Z,0.00
2023-11-29T02:06:49.865Z,0.00
2023-11-29T02:07:49.847Z,0.00
2023-11-29T02:08:49.877Z,0.00
2023-11-29T02:09:49.815Z,0.00
2023-11-29T02:10:49.788Z,0.00
2023-11-29T02:11:49.787Z,0.00
2023-11-29T02:12:49.774Z,0.00
2023-11-29T02:13:49.747Z,0.00
2023-11-29T02:14:49.729Z,0.00
2023-11-29T02:15:49.789Z,0.00
2023-11-29T02:16:49.672Z,0.00
2023-11-29T02:17:49.799Z,0.00
2023-11-29T02:18:49.755Z,0.00
2023-11-29T02:19:49.675Z,0.00
2023-11-29T02:20:49.782Z,0.00
2023-11-29T02:21:49.648Z,0.00
2023-11-29T02:22:49.574Z,0.00
2023-11-29T02:23:49.686Z,0.00
2023-11-29T02:24:49.613Z,0.00
2023-11-29T02:25:49.507Z,0.00
2023-11-29T02:26:49.521Z,0.00
2023-11-29T02:27:49.484Z,0.00
2023-11-29T02:28:49.450Z,0.00
2023-11-29T02:29:49.474Z,0.00
2023-11-29T02:30:49.411Z,0.00
2023-11-29T02:31:49.393Z,0.00
2023-11-29T02:32:49.494Z,0.00
2023-11-29T02:33:49.361Z,0.00
2023-11-29T02:34:49.457Z,0.00
2023-11-29T02:35:49.436Z,0.00
2023-11-29T02:36:49.300Z,0.00
2023-11-29T02:37:49.299Z,0.00
2023-11-29T02:38:49.317Z,0.00
2023-11-29T02:39:49.257Z,0.00
2023-11-29T02:40:49.233Z,0.00
2023-11-29T02:41:49.294Z,0.00
2023-11-29T02:42:49.187Z,0.00
2023-11-29T02:43:49.171Z,0.00
2023-11-29T02:44:49.207Z,0.00
2023-11-29T02:45:49.133Z,0.00
2023-11-29T02:46:49.115Z,0.00
2023-11-29T02:47:49.205Z,0.00
2023-11-29T02:48:49.173Z,0.00
2023-11-29T02:49:49.061Z,0.00
2023-11-29T02:50:49.243Z,0.00
2023-11-29T02:51:49.150Z,0.00
2023-11-29T02:52:49.005Z,0.00
2023-11-29T02:53:49.067Z,0.00
2023-11-29T02:54:48.978Z,0.00
2023-11-29T02:55:49.001Z,0.00
2023-11-29T02:56:48.990Z,0.00
2023-11-29T02:57:49.057Z,0.00
2023-11-29T02:58:48.931Z,0.00
2023-11-29T02:59:49.081Z,0.00
2023-11-29T03:00:48.873Z,0.00
2023-11-29T03:01:48.905Z,0.00
2023-11-29T03:02:48.912Z,0.00
2023-11-29T03:03:48.850Z,0.00
2023-11-29T03:04:48.775Z,0.00
2023-11-29T03:05:48.892Z,0.00
2023-11-29T03:06:48.906Z,0.00
2023-11-29T03:07:48.804Z,0.00
2023-11-29T03:08:48.798Z,0.00
2023-11-29T03:09:48.685Z,0.00
2023-11-29T03:10:48.778Z,0.00
2023-11-29T03:11:48.752Z,0.00
2023-11-29T03:12:48.629Z,0.00
2023-11-29T03:13:48.610Z,0.00
2023-11-29T03:14:48.704Z,0.00
2023-11-29T03:15:48.593Z,0.00
2023-11-29T03:16:48.553Z,0.00
2023-11-29T03:17:48.601Z,0.00
2023-11-29T03:18:48.515Z,0.00
2023-11-29T03:19:48.499Z,0.00
2023-11-29T03:20:48.513Z,0.00
2023-11-29T03:21:48.459Z,0.00
2023-11-29T03:22:48.742Z,0.00
2023-11-29T03:23:48.451Z,0.00
2023-11-29T03:24:48.399Z,0.00
2023-11-29T03:25:48.389Z,0.00
2023-11-29T03:26:48.412Z,0.00
2023-11-29T03:27:48.347Z,0.00
2023-11-29T03:28:48.330Z,0.00
2023-11-29T03:29:48.334Z,0.00
2023-11-29T03:30:48.293Z,0.00
2023-11-29T03:31:48.356Z,0.00
2023-11-29T03:32:48.305Z,0.00
2023-11-29T03:33:48.242Z,0.00
2023-11-29T03:34:48.226Z,0.00
2023-11-29T03:35:48.222Z,0.00
2023-11-29T03:36:48.178Z,0.00
2023-11-29T03:37:48.158Z,0.00
2023-11-29T03:38:48.296Z,0.00
2023-11-29T03:39:48.114Z,0.00
2023-11-29T03:40:48.114Z,0.00
2023-11-29T03:41:48.103Z,0.00
2023-11-29T03:42:48.060Z,0.00
2023-11-29T03:43:48.039Z,0.00
2023-11-29T03:44:48.045Z,0.00
2023-11-29T03:45:48.019Z,0.00
2023-11-29T03:46:47.988Z,0.00
2023-11-29T03:47:48.121Z,0.00
2023-11-29T03:48:47.956Z,0.00
2023-11-29T03:49:47.934Z,0.00
2023-11-29T03:50:47.922Z,0.00
2023-11-29T03:51:49.533Z,0.00
2023-11-29T03:52:47.872Z,0.00
2023-11-29T03:53:47.870Z,0.00
2023-11-29T03:54:47.944Z,0.00
2023-11-29T03:55:47.815Z,0.00
2023-11-29T03:56:47.839Z,0.00
2023-11-29T03:57:47.776Z,0.00
2023-11-29T03:58:47.758Z,0.00
2023-11-29T03:59:47.782Z,0.00
2023-11-29T04:00:47.719Z,0.00
2023-11-29T04:01:47.761Z,0.00
2023-11-29T04:02:47.760Z,0.00
2023-11-29T04:03:47.706Z,0.00
2023-11-29T04:04:47.724Z,0.00
2023-11-29T04:05:47.659Z,0.00
2023-11-29T04:06:47.614Z,0.00
2023-11-29T04:07:47.584Z,0.00
2023-11-29T04:08:47.582Z,0.00
2023-11-29T04:09:51.968Z,0.00
2023-11-29T04:10:47.650Z,0.00
2023-11-29T04:11:47.559Z,0.00
2023-11-29T04:12:47.495Z,0.00
2023-11-29T04:13:47.474Z,0.00
2023-11-29T04:14:47.509Z,0.00
2023-11-29T04:15:47.442Z,0.00
2023-11-29T04:16:47.435Z,0.00
2023-11-29T04:17:47.417Z,0.00
2023-11-29T04:18:47.389Z,0.00
2023-11-29T04:19:47.364Z,0.00
2023-11-29T04:20:47.383Z,0.00
2023-11-29T04:21:47.316Z,0.00
2023-11-29T04:22:47.303Z,0.00
2023-11-29T04:23:47.331Z,0.00
2023-11-29T04:24:47.278Z,0.00
2023-11-29T04:25:47.247Z,0.00
2023-11-29T04:26:47.411Z,0.00
2023-11-29T04:27:47.206Z,0.00
2023-11-29T04:28:47.193Z,0.00
2023-11-29T04:29:47.321Z,0.00
2023-11-29T04:30:47.200Z,0.00
2023-11-29T04:31:47.129Z,0.00
2023-11-29T04:32:47.196Z,0.00
2023-11-29T04:33:47.095Z,0.00
2023-11-29T04:34:48.262Z,0.00
2023-11-29T04:35:47.105Z,0.00
2023-11-29T04:36:49.853Z,0.00
2023-11-29T04:37:47.030Z,0.00
2023-11-29T04:38:47.038Z,0.00
2023-11-29T04:39:46.986Z,0.00
2023-11-29T04:40:46.961Z,0.00
2023-11-29T04:41:46.994Z,0.00
2023-11-29T04:42:47.036Z,0.00
2023-11-29T04:43:46.903Z,0.00
2023-11-29T04:44:46.936Z,0.00
2023-11-29T04:45:46.867Z,0.00
2023-11-29T04:46:46.977Z,0.00
2023-11-29T04:47:46.889Z,0.00
2023-11-29T04:48:46.810Z,0.00
2023-11-29T04:49:46.804Z,0.00
2023-11-29T04:50:46.844Z,0.00
2023-11-29T04:51:46.752Z,0.00
2023-11-29T04:52:46.739Z,0.00
2023-11-29T04:53:46.731Z,0.00
2023-11-29T04:54:46.695Z,0.00
2023-11-29T04:55:46.694Z,0.00
2023-11-29T04:56:46.724Z,0.00
2023-11-29T04:57:46.644Z,0.00
2023-11-29T04:58:46.730Z,0.00
2023-11-29T04:59:46.647Z,0.00
2023-11-29T05:00:46.592Z,0.00
2023-11-29T05:01:46.818Z,0.00
2023-11-29T05:02:46.658Z,0.00
2023-11-29T05:03:46.569Z,0.00
2023-11-29T05:04:46.507Z,0.00
2023-11-29T05:05:46.495Z,0.00
2023-11-29T05:06:46.483Z,0.00
2023-11-29T05:07:46.448Z,0.00
2023-11-29T05:08:46.492Z,0.00
2023-11-29T05:09:46.414Z,0.00
2023-11-29T05:10:46.408Z,0.00
2023-11-29T05:11:46.503Z,0.00
2023-11-29T05:12:46.357Z,0.00
2023-11-29T05:13:46.337Z,0.00
2023-11-29T05:14:46.431Z,0.00
2023-11-29T05:15:46.299Z,0.00
2023-11-29T05:16:46.287Z,0.00
2023-11-29T05:17:46.324Z,0.00
2023-11-29T05:18:46.323Z,0.00
2023-11-29T05:19:46.247Z,0.00
2023-11-29T05:20:46.263Z,0.00
2023-11-29T05:21:46.188Z,0.00
2023-11-29T05:22:46.169Z,0.00
2023-11-29T05:23:46.222Z,0.00
2023-11-29T05:24:46.140Z,0.00
2023-11-29T05:25:46.118Z,0.00
2023-11-29T05:26:46.120Z,0.00
2023-11-29T05:27:46.074Z,0.00
2023-11-29T05:28:46.058Z,0.00
2023-11-29T05:29:46.094Z,0.00
2023-11-29T05:30:46.157Z,0.00
2023-11-29T05:31:46.000Z,0.00
2023-11-29T05:32:46.041Z,0.00
2023-11-29T05:33:45.963Z,0.00
2023-11-29T05:34:45.946Z,0.00
2023-11-29T05:35:45.967Z,0.00
2023-11-29T05:36:45.910Z,0.00
2023-11-29T05:37:45.901Z,0.00
2023-11-29T05:38:46.039Z,0.00
2023-11-29T05:39:45.870Z,0.00
2023-11-29T05:40:45.834Z,0.00
2023-11-29T05:41:45.850Z,0.00
2023-11-29T05:42:45.798Z,0.00
2023-11-29T05:43:45.781Z,0.00
2023-11-29T05:44:45.765Z,0.00
2023-11-29T05:45:45.784Z,0.00
2023-11-29T05:46:45.853Z,0.00
2023-11-29T05:47:45.757Z,0.00
2023-11-29T05:48:45.687Z,0.00
2023-11-29T05:49:45.696Z,0.00
2023-11-29T05:50:45.668Z,0.00
2023-11-29T05:51:45.683Z,0.00
2023-11-29T05:52:45.627Z,0.00
2023-11-29T05:53:45.591Z,0.00
2023-11-29T05:54:45.573Z,0.00
2023-11-29T05:55:45.554Z,0.00
2023-11-29T05:56:45.563Z,0.00
2023-11-29T05:57:45.517Z,0.00
2023-11-29T05:58:45.498Z,0.00
2023-11-29T05:59:45.513Z,0.00
2023-11-29T06:00:45.467Z,0.00
2023-11-29T06:01:45.475Z,0.00
2023-11-29T06:02:45.552Z,0.00
2023-11-29T06:03:45.488Z,0.00
2023-11-29T06:04:45.425Z,0.00
2023-11-29T06:05:45.384Z,0.00
2023-11-29T06:06:45.364Z,0.00
2023-11-29T06:07:45.330Z,0.00
2023-11-29T06:08:45.347Z,0.00
2023-11-29T06:09:45.303Z,0.00
2023-11-29T06:10:45.276Z,0.00
2023-11-29T06:11:45.280Z,0.00
2023-11-29T06:12:45.240Z,0.00
2023-11-29T06:13:45.221Z,0.00
2023-11-29T06:14:45.236Z,0.00
2023-11-29T06:15:45.217Z,0.00
2023-11-29T06:16:45.170Z,0.00
2023-11-29T06:17:45.242Z,0.00
2023-11-29T06:18:45.262Z,0.00
2023-11-29T06:19:45.109Z,0.00
2023-11-29T06:20:45.160Z,0.00
2023-11-29T06:21:45.073Z,0.00
2023-11-29T06:22:45.089Z,0.00
2023-11-29T06:23:45.363Z,0.00
2023-11-29T06:24:45.016Z,0.00
2023-11-29T06:25:44.996Z,0.00
2023-11-29T06:26:45.041Z,0.00
2023-11-29T06:27:44.959Z,0.00
2023-11-29T06:28:44.942Z,0.00
2023-11-29T06:29:44.960Z,0.00
2023-11-29T06:30:44.917Z,0.00
2023-11-29T06:31:44.922Z,0.00
2023-11-29T06:32:45.033Z,0.00
2023-11-29T06:33:44.866Z,0.00
2023-11-29T06:34:44.930Z,0.00
2023-11-29T06:35:44.836Z,0.00
2023-11-29T06:36:44.806Z,0.00
2023-11-29T06:37:49.051Z,0.00
2023-11-29T06:38:44.838Z,0.00
2023-11-29T06:39:44.737Z,0.00
2023-11-29T06:40:50.602Z,0.00
2023-11-29T06:41:44.726Z,0.00
2023-11-29T06:42:44.684Z,0.00
2023-11-29T06:43:44.670Z,0.00
2023-11-29T06:44:44.666Z,0.00
2023-11-29T06:45:44.626Z,0.00
2023-11-29T06:46:44.696Z,0.00
2023-11-29T06:47:44.638Z,0.00
2023-11-29T06:48:44.571Z,0.00
2023-11-29T06:49:44.551Z,0.00
2023-11-29T06:50:44.553Z,0.00
2023-11-29T06:51:44.516Z,0.00
2023-11-29T06:52:46.508Z,0.00
2023-11-29T06:53:44.496Z,0.00
2023-11-29T06:54:44.459Z,0.00
2023-11-29T06:55:44.453Z,0.00
2023-11-29T06:56:44.445Z,0.00
2023-11-29T06:57:44.412Z,0.00
2023-11-29T06:58:44.384Z,0.00
2023-11-29T06:59:44.401Z,0.00
2023-11-29T07:00:44.352Z,0.00
2023-11-29T07:01:44.374Z,0.00
2023-11-29T07:02:44.450Z,0.00
2023-11-29T07:03:44.310Z,0.00
2023-11-29T07:04:44.282Z,0.00
2023-11-29T07:05:44.306Z,0.00
2023-11-29T07:06:44.300Z,0.00
2023-11-29T07:07:44.233Z,0.00
2023-11-29T07:08:44.289Z,0.00
2023-11-29T07:09:44.244Z,0.00
2023-11-29T07:10:44.168Z,0.00
2023-11-29T07:11:44.273Z,0.00
2023-11-29T07:12:44.128Z,0.00
2023-11-29T07:13:44.108Z,0.00
2023-11-29T07:14:44.120Z,5.63
2023-11-29T07:15:44.072Z,5.63
2023-11-29T07:16:44.053Z,5.63
2023-11-29T07:17:44.092Z,5.63
2023-11-29T07:18:44.018Z,5.63
2023-11-29T07:19:44.004Z,5.63
2023-11-29T07:20:46.630Z,5.63
2023-11-29T07:21:43.969Z,5.63
2023-11-29T07:22:43.961Z,5.63
2023-11-29T07:23:43.988Z,5.63
2023-11-29T07:24:43.917Z,5.63
2023-11-29T07:25:43.890Z,5.63
2023-11-29T07:26:43.929Z,5.63
2023-11-29T07:27:43.851Z,11.25
2023-11-29T07:28:43.834Z,11.25
2023-11-29T07:29:43.838Z,11.25
2023-11-29T07:30:43.799Z,11.25
2023-11-29T07:31:43.820Z,11.25
2023-11-29T07:32:43.805Z,11.25
2023-11-29T07:33:43.764Z,11.25
2023-11-29T07:34:43.726Z,11.25
2023-11-29T07:35:43.742Z,16.88
2023-11-29T07:36:43.723Z,16.88
2023-11-29T07:37:43.685Z,16.88
2023-11-29T07:38:43.688Z,16.88
2023-11-29T07:39:43.630Z,16.88
2023-11-29T07:40:43.612Z,16.88
2023-11-29T07:41:43.628Z,16.88
2023-11-29T07:42:43.580Z,16.88
2023-11-29T07:43:43.571Z,16.88
2023-11-29T07:44:43.555Z,16.88
2023-11-29T07:45:43.562Z,22.50
2023-11-29T07:46:43.524Z,22.50
2023-11-29T07:47:43.506Z,22.50
2023-11-29T07:48:43.490Z,22.50
2023-11-29T07:49:43.449Z,22.50
2023-11-29T07:50:43.532Z,22.50
2023-11-29T07:51:43.415Z,22.50
2023-11-29T07:52:43.410Z,22.50
2023-11-29T07:53:43.414Z,22.50
2023-11-29T07:54:43.383Z,22.50
2023-11-29T07:55:43.342Z,22.50
2023-11-29T07:56:43.324Z,22.50
2023-11-29T07:57:43.301Z,22.50
2023-11-29T07:58:43.279Z,28.13
2023-11-29T07:59:43.280Z,28.13
2023-11-29T08:00:43.243Z,28.13
2023-11-29T08:01:43.262Z,28.13
2023-11-29T08:02:43.242Z,28.13
2023-11-29T08:03:43.241Z,28.13
2023-11-29T08:04:43.256Z,28.13
2023-11-29T08:05:44.470Z,33.75
2023-11-29T08:06:43.132Z,33.75
2023-11-29T08:07:43.138Z,33.75
2023-11-29T08:08:43.112Z,33.75
2023-11-29T08:09:43.081Z,33.75
2023-11-29T08:10:43.140Z,33.75
2023-11-29T08:11:43.081Z,33.75
2023-11-29T08:12:43.022Z,33.75
2023-11-29T08:13:43.005Z,33.75
2023-11-29T08:14:43.021Z,33.75
2023-11-29T08:15:42.976Z,33.75
2023-11-29T08:16:42.982Z,33.75
2023-11-29T08:17:43.063Z,33.75
2023-11-29T08:18:42.961Z,33.75
2023-11-29T08:19:42.905Z,39.38
2023-11-29T08:20:42.930Z,39.38
2023-11-29T08:21:42.859Z,39.38
2023-11-29T08:22:42.840Z,39.38
2023-11-29T08:23:42.853Z,39.38
2023-11-29T08:24:42.802Z,39.38
2023-11-29T08:25:42.786Z,39.38
2023-11-29T08:26:42.853Z,39.38
2023-11-29T08:27:42.749Z,39.38
2023-11-29T08:28:42.743Z,39.38
2023-11-29T08:29:42.768Z,45.00
2023-11-29T08:30:42.745Z,45.00
2023-11-29T08:31:42.675Z,45.00
2023-11-29T08:32:42.838Z,45.00
2023-11-29T08:33:42.686Z,39.38
2023-11-29T08:34:42.621Z,39.38
2023-11-29T08:35:42.710Z,45.00
2023-11-29T08:36:42.581Z,45.00
2023-11-29T08:37:42.571Z,45.00
2023-11-29T08:38:42.573Z,39.38
2023-11-29T08:39:42.532Z,45.00
2023-11-29T08:40:42.520Z,45.00
2023-11-29T08:41:42.548Z,39.38
2023-11-29T08:42:42.509Z,45.00
2023-11-29T08:43:42.459Z,39.38
2023-11-29T08:44:42.468Z,39.38
2023-11-29T08:45:42.422Z,39.38
2023-11-29T08:46:42.445Z,39.38
2023-11-29T08:47:42.568Z,45.00
2023-11-29T08:48:42.470Z,45.00
2023-11-29T08:49:42.396Z,39.38
2023-11-29T08:50:42.462Z,50.63
2023-11-29T08:51:42.315Z,50.63
2023-11-29T08:52:42.295Z,56.25
2023-11-29T08:54:42.259Z,56.25
2023-11-29T08:55:42.240Z,56.25
2023-11-29T08:56:42.287Z,56.25
2023-11-29T08:57:42.209Z,56.25
2023-11-29T08:58:42.323Z,56.25
2023-11-29T08:59:42.205Z,56.25
2023-11-29T09:00:42.151Z,61.88
2023-11-29T09:01:42.233Z,61.88
2023-11-29T09:02:42.191Z,61.88
2023-11-29T09:03:42.355Z,61.88
2023-11-29T09:04:42.080Z,61.88
2023-11-29T09:05:42.112Z,61.88
2023-11-29T09:06:42.044Z,61.88
2023-11-29T09:07:42.037Z,61.88
2023-11-29T09:08:42.056Z,61.88
2023-11-29T09:09:41.994Z,61.88
2023-11-29T09:10:41.973Z,61.88
2023-11-29T09:11:41.973Z,61.88
2023-11-29T09:12:41.937Z,61.88
2023-11-29T09:13:41.941Z,61.88
2023-11-29T09:14:41.961Z,61.88
2023-11-29T09:15:41.886Z,61.88
2023-11-29T09:16:41.892Z,61.88
2023-11-29T09:17:41.887Z,61.88
2023-11-29T09:18:41.863Z,67.50
2023-11-29T09:19:41.815Z,67.50
2023-11-29T09:20:41.859Z,67.50
2023-11-29T09:21:41.823Z,67.50
2023-11-29T09:22:41.780Z,67.50
2023-11-29T09:23:41.754Z,67.50
2023-11-29T09:24:41.728Z,67.50
2023-11-29T09:25:41.714Z,67.50
2023-11-29T09:26:41.711Z,67.50
2023-11-29T09:27:41.685Z,67.50
2023-11-29T09:28:41.655Z,67.50
2023-11-29T09:29:41.694Z,61.88
2023-11-29T09:30:41.676Z,67.50
2023-11-29T09:31:41.605Z,61.88
2023-11-29T09:32:41.636Z,61.88
2023-11-29T09:33:41.619Z,61.88
2023-11-29T09:34:41.553Z,61.88
2023-11-29T09:35:41.619Z,61.88
2023-11-29T09:36:41.523Z,61.88
2023-11-29T09:37:41.502Z,61.88
2023-11-29T09:38:41.511Z,67.50
2023-11-29T09:39:41.473Z,61.88
2023-11-29T09:40:41.448Z,67.50
2023-11-29T09:41:41.492Z,73.13
2023-11-29T09:42:41.410Z,67.50
2023-11-29T09:43:41.396Z,67.50
2023-11-29T09:44:41.460Z,67.50
2023-11-29T09:45:41.406Z,67.50
2023-11-29T09:46:41.371Z,67.50
2023-11-29T09:47:41.407Z,67.50
2023-11-29T09:48:41.452Z,67.50
2023-11-29T09:49:41.294Z,67.50
2023-11-29T09:50:41.296Z,67.50
2023-11-29T09:51:41.275Z,67.50
2023-11-29T09:52:41.241Z,67.50
2023-11-29T09:53:41.250Z,67.50
2023-11-29T09:54:41.244Z,67.50
2023-11-29T09:55:41.197Z,67.50
2023-11-29T09:56:41.192Z,67.50
2023-11-29T09:57:41.172Z,67.50
2023-11-29T09:58:41.136Z,67.50
2023-11-29T09:59:41.143Z,67.50
2023-11-29T10:00:41.145Z,73.13
2023-11-29T10:01:41.108Z,73.13
2023-11-29T10:02:41.192Z,73.13
2023-11-29T10:03:41.170Z,73.13
2023-11-29T10:04:41.189Z,73.13
2023-11-29T10:05:41.047Z,67.50
2023-11-29T10:06:41.008Z,67.50
2023-11-29T10:07:40.980Z,73.13
2023-11-29T10:08:40.976Z,73.13
2023-11-29T10:09:40.954Z,67.50
2023-11-29T10:10:40.930Z,73.13
2023-11-29T10:11:41.058Z,73.13
2023-11-29T10:12:42.285Z,78.75
2023-11-29T10:13:40.881Z,78.75
2023-11-29T10:14:40.880Z,73.13
2023-11-29T10:15:40.845Z,78.75
2023-11-29T10:16:40.830Z,73.13
2023-11-29T10:17:40.864Z,73.13
2023-11-29T10:18:40.949Z,78.75
2023-11-29T10:19:40.822Z,73.13
2023-11-29T10:20:41.867Z,73.13
2023-11-29T10:21:40.754Z,73.13
2023-11-29T10:22:40.727Z,73.13
2023-11-29T10:23:40.890Z,73.13
2023-11-29T10:24:40.696Z,73.13
2023-11-29T10:25:40.675Z,73.13
2023-11-29T10:26:40.691Z,73.13
2023-11-29T10:27:40.643Z,73.13
2023-11-29T10:28:41.008Z,73.13
2023-11-29T10:29:40.720Z,73.13
2023-11-29T10:30:40.597Z,73.13
2023-11-29T10:31:40.713Z,73.13
2023-11-29T10:32:40.594Z,73.13
2023-11-29T10:33:40.707Z,73.13
2023-11-29T10:34:40.630Z,73.13
2023-11-29T10:35:40.522Z,73.13
2023-11-29T10:36:40.484Z,78.75
2023-11-29T10:37:40.473Z,78.75
2023-11-29T10:38:40.491Z,73.13
2023-11-29T10:39:40.464Z,73.13
2023-11-29T10:40:40.430Z,73.13
2023-11-29T10:41:40.453Z,73.13
2023-11-29T10:42:40.386Z,73.13
2023-11-29T10:43:40.904Z,78.75
2023-11-29T10:44:40.366Z,73.13
2023-11-29T10:45:40.338Z,73.13
2023-11-29T10:46:40.402Z,73.13
2023-11-29T10:47:40.370Z,73.13
2023-11-29T10:48:40.343Z,73.13
2023-11-29T10:49:40.294Z,73.13
2023-11-29T10:50:40.312Z,78.75
2023-11-29T10:51:40.246Z,78.75
2023-11-29T10:52:40.227Z,78.75
2023-11-29T10:53:40.237Z,78.75
2023-11-29T10:54:41.458Z,78.75
2023-11-29T10:55:40.177Z,56.25
2023-11-29T10:56:40.181Z,73.13
2023-11-29T10:57:40.142Z,73.13
2023-11-29T10:58:40.139Z,73.13
2023-11-29T10:59:40.157Z,78.75
2023-11-29T11:00:40.090Z,78.75
2023-11-29T11:01:40.196Z,78.75
2023-11-29T11:02:40.167Z,78.75
2023-11-29T11:03:40.158Z,78.75
2023-11-29T11:04:40.072Z,78.75
2023-11-29T11:05:40.074Z,78.75
2023-11-29T11:06:40.078Z,78.75
2023-11-29T11:07:39.978Z,78.75
2023-11-29T11:08:39.963Z,73.13
2023-11-29T11:09:39.944Z,78.75
2023-11-29T11:10:39.932Z,78.75
2023-11-29T11:11:39.935Z,78.75
2023-11-29T11:12:39.895Z,73.13
2023-11-29T11:13:39.897Z,73.13
2023-11-29T11:14:39.889Z,73.13
2023-11-29T11:15:39.845Z,73.13
2023-11-29T11:16:39.857Z,73.13
2023-11-29T11:17:39.882Z,73.13
2023-11-29T11:18:39.844Z,61.88
2023-11-29T11:19:39.897Z,73.13
2023-11-29T11:20:39.783Z,73.13
2023-11-29T11:21:39.754Z,73.13
2023-11-29T11:22:39.752Z,67.50
2023-11-29T11:23:39.719Z,61.88
2023-11-29T11:24:39.698Z,67.50
2023-11-29T11:25:39.681Z,56.25
2023-11-29T11:26:39.681Z,61.88
2023-11-29T11:27:39.648Z,67.50
2023-11-29T11:28:39.630Z,73.13
2023-11-29T11:29:39.628Z,73.13
2023-11-29T11:30:39.622Z,73.13
2023-11-29T11:31:39.586Z,67.50
2023-11-29T11:32:39.681Z,67.50
2023-11-29T11:33:39.585Z,67.50
2023-11-29T11:34:39.550Z,67.50
2023-11-29T11:35:39.574Z,67.50
2023-11-29T11:36:39.503Z,67.50
2023-11-29T11:37:39.486Z,67.50
2023-11-29T11:38:39.513Z,67.50
2023-11-29T11:39:39.453Z,67.50
2023-11-29T11:40:39.483Z,73.13
2023-11-29T11:41:39.454Z,67.50
2023-11-29T11:42:39.404Z,73.13
2023-11-29T11:43:39.390Z,73.13
2023-11-29T11:44:39.479Z,73.13
2023-11-29T11:45:39.363Z,78.75
2023-11-29T11:46:39.391Z,78.75
2023-11-29T11:47:39.406Z,78.75
2023-11-29T11:48:39.490Z,78.75
2023-11-29T11:49:39.326Z,78.75
2023-11-29T11:50:39.364Z,78.75
2023-11-29T11:51:39.266Z,78.75
2023-11-29T11:52:39.246Z,78.75
2023-11-29T11:53:39.316Z,78.75
2023-11-29T11:54:39.228Z,78.75
2023-11-29T11:55:39.192Z,78.75
2023-11-29T11:56:39.186Z,78.75
2023-11-29T11:57:39.160Z,78.75
2023-11-29T11:58:39.154Z,78.75
2023-11-29T11:59:39.158Z,78.75
2023-11-29T12:00:39.114Z,78.75
2023-11-29T12:01:39.139Z,78.75
2023-11-29T12:02:39.285Z,78.75
2023-11-29T12:03:39.102Z,78.75
2023-11-29T12:04:39.115Z,78.75
2023-11-29T12:05:39.109Z,78.75
2023-11-29T12:06:39.020Z,78.75
2023-11-29T12:07:39.002Z,78.75
2023-11-29T12:08:39.285Z,61.88
2023-11-29T12:09:38.970Z,73.13
2023-11-29T12:10:38.972Z,78.75
2023-11-29T12:11:38.956Z,78.75
2023-11-29T12:12:38.917Z,78.75
2023-11-29T12:13:38.918Z,78.75
2023-11-29T12:14:38.924Z,78.75
2023-11-29T12:15:39.067Z,61.88
2023-11-29T12:16:38.937Z,56.25
2023-11-29T12:17:39.399Z,61.88
2023-11-29T12:18:38.877Z,73.13
2023-11-29T12:19:38.805Z,78.75
2023-11-29T12:20:38.816Z,78.75
2023-11-29T12:21:38.780Z,78.75
2023-11-29T12:22:38.764Z,78.75
2023-11-29T12:23:38.778Z,78.75
2023-11-29T12:24:45.647Z,78.75
2023-11-29T12:25:39.631Z,78.75
2023-11-29T12:26:38.770Z,78.75
2023-11-29T12:27:38.685Z,73.13
2023-11-29T12:28:38.669Z,73.13
2023-11-29T12:29:38.667Z,78.75
2023-11-29T12:30:38.633Z,78.75
2023-11-29T12:31:38.639Z,78.75
2023-11-29T12:32:38.655Z,78.75
2023-11-29T12:33:39.537Z,78.75
2023-11-29T12:34:38.571Z,78.75
2023-11-29T12:35:38.588Z,78.75
2023-11-29T12:36:38.538Z,78.75
2023-11-29T12:37:38.523Z,73.13
2023-11-29T12:38:38.560Z,73.13
2023-11-29T12:39:38.489Z,78.75
2023-11-29T12:40:38.479Z,73.13
2023-11-29T12:41:38.478Z,78.75
2023-11-29T12:42:38.463Z,78.75
2023-11-29T12:43:38.431Z,84.38
2023-11-29T12:44:38.487Z,78.75
2023-11-29T12:45:38.408Z,78.75
2023-11-29T12:46:38.381Z,73.13
2023-11-29T12:47:38.474Z,73.13
2023-11-29T12:48:38.458Z,73.13
2023-11-29T12:49:38.425Z,73.13
2023-11-29T12:50:38.407Z,73.13
2023-11-29T12:51:38.302Z,73.13
2023-11-29T12:52:38.300Z,73.13
2023-11-29T12:53:38.307Z,73.13
2023-11-29T12:54:38.275Z,73.13
2023-11-29T12:55:38.241Z,73.13
2023-11-29T12:56:38.250Z,67.50
2023-11-29T12:57:38.203Z,73.13
2023-11-29T12:58:38.211Z,61.88
2023-11-29T12:59:38.204Z,67.50
2023-11-29T13:00:38.159Z,67.50
2023-11-29T13:01:38.200Z,61.88
2023-11-29T13:02:38.280Z,56.25
2023-11-29T13:03:38.176Z,61.88
2023-11-29T13:04:38.094Z,67.50
2023-11-29T13:05:38.106Z,67.50
2023-11-29T13:06:38.071Z,67.50
2023-11-29T13:07:38.058Z,67.50
2023-11-29T13:08:38.099Z,67.50